Terminal Aerodrome Forecast
Issued by NWS Tampa Bay Area, FL

Home | Current Version | Previous Version | Text Only | Print | Product List | Glossary On
Versions: 1 2 3 4 5 6 7 8 9 10 11 12
000
FTUS42 KTBW 311700
TAFFMY
TAF
KFMY 311738Z 3118/0118 32010KT P6SM SCT250
     FM010500 33006KT P6SM FEW250
     FM011200 31005KT P6SM SCT035
     FM011400 33011KT P6SM FEW025 SCT035
     FM011600 33015G24KT P6SM FEW025 SCT250=

USA.gov is the U.S. government's official web portal to all federal, state and local government web resources and services.